Flight Track Log - Related Links

Times and Time Zones

All times are in EDT time to prevent confusion due to time zone crossing. See the NKS940 flight status page for this flight to view local times or setup timezone preferences in your user account.

Time Position Orientation Groundspeed Altitude Reporting Facility
EDT Latitude Longitude Course Direction KTS MPH feet Rate Location/Type
Sun 08:02:22 AM 32.8690 -97.0270 167° South 153 176 2,200  Level FlightAware ADS-B
Sun 08:02:50 AM 32.8470 -97.0200 165° South 181 208 2,900 1,364 Climbing FlightAware ADS-B
Sun 08:03:06 AM 32.8350 -97.0120 151° Southeast 215 247 3,200 1,385 Climbing FlightAware ADS-B
Sun 08:03:16 AM 32.8280 -97.0010 127° Southeast 242 278 3,500 2,143 Climbing FlightAware ADS-B
Sun 08:03:34 AM 32.8220 -96.9760 106° East 274 315 4,200 3,000 Climbing FlightAware ADS-B
Sun 08:04:02 AM 32.8270 -96.9340 82° East 286 329 5,800 3,462 Climbing FlightAware ADS-B
Sun 08:04:26 AM 32.8370 -96.8980 72° East 290 334 7,200 3,346 Climbing FlightAware ADS-B
Sun 08:04:54 AM 32.8490 -96.8540 72° East 297 342 8,700 2,759 Climbing FlightAware ADS-B
Sun 08:05:53 AM 32.8710 -96.7620 74° East 319 367 11,200 2,280 Climbing FlightAware ADS-B
Sun 08:06:34 AM 32.8880 -96.6870 75° East 349 402 12,500 2,458 Climbing FlightAware ADS-B
Sun 08:07:16 AM 32.9070 -96.6070 74° East 352 405 14,600 2,602 Climbing FlightAware ADS-B
Sun 08:07:57 AM 32.9250 -96.5310 74° East 363 418 16,100 1,571 Climbing FlightAware ADS-B
Sun 08:08:40 AM 32.9450 -96.4420 75° East 398 458 16,800 1,412 Climbing FlightAware ADS-B
Sun 08:09:22 AM 32.9650 -96.3530 75° East 410 472 18,100 2,023 Climbing FlightAware ADS-B
Sun 08:10:06 AM 32.9810 -96.2550 79° East 413 475 19,700 1,902 Climbing FlightAware ADS-B
Sun 08:10:44 AM 32.9930 -96.1670 81° East 425 489 20,700 1,625 Climbing FlightAware ADS-B
Sun 08:11:42 AM 33.0110 -96.0320 81° East 433 498 22,300 1,592 Climbing FlightAware ADS-B
Sun 08:12:22 AM 33.0240 -95.9370 81° East 440 506 23,300 1,568 Climbing FlightAware ADS-B
Sun 08:13:10 AM 33.0400 -95.8216 81° East 445 512 24,600 1,537 Climbing FlightAware ADS-B
Sun 08:13:44 AM 33.0515 -95.7370 81° East 446 513 25,400 1,500 Climbing FlightAware ADS-B
Sun 08:14:14 AM 33.0612 -95.6643 81° East 451 519 26,200 1,279 Climbing FlightAware ADS-B
Sun 08:14:45 AM 33.0715 -95.5877 81° East 457 526 26,700 947 Climbing FlightAware ADS-B
Sun 08:14:52 AM 33.0744 -95.5698 79° East 459 528 26,800 1,105 Climbing FlightAware ADS-B
Sun 08:15:23 AM 33.0942 -95.4983 72° East 460 529 27,400 1,043 Climbing FlightAware ADS-B
Sun 08:16:01 AM 33.1233 -95.4029 70° East 473 544 28,000 1,217 Climbing FlightAware ADS-B
Sun 08:16:32 AM 33.1461 -95.3263 70° East 474 545 28,800 1,569 Climbing FlightAware ADS-B
Sun 08:17:06 AM 33.1700 -95.2470 70° East 471 542 29,700 1,440 Climbing FlightAware ADS-B
Sun 08:17:22 AM 33.1823 -95.2048 71° East 473 544 30,000 1,015 Climbing FlightAware ADS-B
Sun 08:18:11 AM 33.2178 -95.0863 70° East 475 547 30,800 1,125 Climbing FlightAware ADS-B
Sun 08:18:42 AM 33.2413 -95.0071 70° East 475 547 31,500 1,377 Climbing FlightAware ADS-B
Sun 08:19:12 AM 33.2637 -94.9314 70° East 477 549 32,200 1,217 Climbing FlightAware ADS-B
Sun 08:19:51 AM 33.2920 -94.8370 70° East 476 548 32,900 1,065 Climbing FlightAware ADS-B
Sun 08:20:14 AM 33.3087 -94.7795 71° East 477 549 33,300 1,053 Climbing FlightAware ADS-B
Sun 08:20:48 AM 33.3336 -94.6942 71° East 476 548 33,900 938 Climbing FlightAware ADS-B
Sun 08:21:18 AM 33.3560 -94.6180 71° East 479 551 34,300 1,065 Climbing FlightAware ADS-B
Sun 08:21:50 AM 33.3784 -94.5409 71° East 474 545 35,000 1,452 Climbing FlightAware ADS-B
Sun 08:22:20 AM 33.4000 -94.4672 71° East 466 536 35,800 1,111 Climbing FlightAware ADS-B
Sun 08:23:11 AM 33.4360 -94.3429 71° East 465 535 36,500 577 Climbing FlightAware ADS-B
Sun 08:24:04 AM 33.4720 -94.2170 71° East 472 543 36,800 316 Climbing FlightAware ADS-B
Sun 08:24:46 AM 33.5030 -94.1110 71° East 468 539 37,000 197 Climbing FlightAware ADS-B
Sun 08:25:05 AM 33.5180 -94.0624 70° East 468 539 37,000  Level FlightAware ADS-B
Sun 08:26:11 AM 33.5680 -93.9330 65° Northeast 466 536 37,000  Level FlightAware ADS-B
Sun 08:26:43 AM 33.6030 -93.8450 64° Northeast 468 539 37,000  Level FlightAware ADS-B
Sun 08:27:31 AM 33.6400 -93.7490 65° Northeast 468 539 37,000  Level FlightAware ADS-B
Sun 08:28:07 AM 33.6680 -93.6770 65° Northeast 468 539 37,000  Level FlightAware ADS-B
Sun 08:28:55 AM 33.7050 -93.5810 65° Northeast 468 539 37,000  Level FlightAware ADS-B
Sun 08:29:32 AM 33.7340 -93.5060 65° Northeast 468 539 37,000  Level FlightAware ADS-B
Sun 08:30:20 AM 33.8000 -93.3330 65° Northeast 469 540 37,000  Level FlightAware ADS-B
Sun 08:31:04 AM 33.8400 -93.2280 65° Northeast 469 540 37,000  Level FlightAware ADS-B
Sun 08:31:41 AM 33.8690 -93.1540 65° Northeast 469 540 37,000  Level FlightAware ADS-B
Sun 08:32:29 AM 33.9060 -93.0570 65° Northeast 469 540 37,000  Level FlightAware ADS-B
Sun 08:33:05 AM 33.9340 -92.9850 65° Northeast 469 540 37,000  Level FlightAware ADS-B
Sun 08:33:54 AM 33.9720 -92.8860 65° Northeast 469 540 37,000  Level FlightAware ADS-B
Sun 08:34:31 AM 34.0010 -92.8110 65° Northeast 469 540 37,000  Level FlightAware ADS-B
Sun 08:35:07 AM 34.0290 -92.7390 65° Northeast 469 540 37,000  Level FlightAware ADS-B
Sun 08:35:55 AM 34.0670 -92.6420 65° Northeast 469 540 37,000  Level FlightAware ADS-B
Sun 08:36:55 AM 34.1140 -92.5210 65° Northeast 469 540 37,000  Level FlightAware ADS-B
Sun 08:37:31 AM 34.1420 -92.4480 65° Northeast 469 540 37,000  Level FlightAware ADS-B
Sun 08:38:20 AM 34.1800 -92.3490 65° Northeast 469 540 37,000  Level FlightAware ADS-B
Sun 08:38:56 AM 34.2080 -92.2760 65° Northeast 469 540 37,000  Level FlightAware ADS-B
Sun 08:39:42 AM 34.2440 -92.1830 65° Northeast 469 540 37,000  Level FlightAware ADS-B
Sun 08:40:32 AM 34.3431 -91.8739 65° Northeast 467 537 37,000  Level Memphis Center
Sun 08:41:32 AM 34.3928 -91.7339 67° East 462 532 37,000  Level Memphis Center
Sun 08:42:32 AM 34.4464 -91.5964 65° Northeast 449 517 37,000  Level Memphis Center
Sun 08:43:32 AM 34.4997 -91.4583 65° Northeast 449 517 37,000  Level Memphis Center
Sun 08:44:32 AM 34.5469 -91.3128 68° East 456 525 37,000  Level Memphis Center
Sun 08:45:32 AM 34.6000 -91.1697 66° East 456 525 37,000  Level Memphis Center
Sun 08:46:32 AM 34.6489 -91.0286 67° East 456 525 37,000  Level Memphis Center
Sun 08:47:32 AM 34.7058 -90.8725 66° East 461 531 37,000  Level Memphis Center
Sun 08:48:32 AM 34.7606 -90.7236 66° East 456 525 37,000  Level Memphis Center
Sun 08:49:32 AM 34.8111 -90.5797 67° East 456 525 37,000  Level Memphis Center
Sun 08:50:32 AM 34.8614 -90.4331 67° East 456 525 37,000  Level Memphis Center
Sun 08:51:32 AM 34.9114 -90.2886 67° East 456 525 37,000  Level Memphis Center
Sun 08:52:32 AM 34.9656 -90.1442 65° Northeast 456 525 37,000  Level Memphis Center
Sun 08:53:32 AM 35.0153 -89.9944 68° East 462 532 37,000  Level Memphis Center
Sun 08:54:32 AM 35.0647 -89.8622 65° Northeast 462 532 37,000  Level Memphis Center
Sun 08:55:32 AM 35.1161 -89.7122 67° East 468 539 37,000  Level Memphis Center
Sun 08:56:32 AM 35.1694 -89.5644 66° East 468 539 37,000  Level Memphis Center
Sun 08:57:32 AM 35.2247 -89.4014 67° East 468 539 37,000  Level Memphis Center
Sun 08:58:32 AM 35.2756 -89.2533 67° East 468 539 37,000  Level Memphis Center
Sun 08:59:32 AM 35.3264 -89.1050 67° East 474 545 37,000  Level Memphis Center
Sun 09:00:32 AM 35.3792 -88.9564 66° East 474 545 37,000  Level Memphis Center
Sun 09:01:32 AM 35.4294 -88.8103 67° East 474 545 37,000  Level Memphis Center
Sun 09:06:46 AM 35.6950 -88.0310 67° East 471 542 37,000  Level FlightAware ADS-B
Sun 09:08:31 AM 35.7810 -87.7730 68° East 469 540 37,000  Level FlightAware ADS-B
Sun 09:09:34 AM 35.8320 -87.6170 68° East 469 540 37,000  Level FlightAware ADS-B
Sun 09:10:16 AM 35.8670 -87.5140 67° East 471 542 37,000  Level FlightAware ADS-B
Sun 09:10:50 AM 35.8950 -87.4280 68° East 471 542 37,000  Level FlightAware ADS-B
Sun 09:11:33 AM 35.9200 -87.3530 68° East 471 542 37,000  Level FlightAware ADS-B
Sun 09:11:55 AM 35.9484 -87.2653 68° East 472 543 37,000  Level FlightAware ADS-B
Sun 09:12:31 AM 35.9780 -87.1753 68° East 471 542 37,000  Level FlightAware ADS-B
Sun 09:13:03 AM 36.0037 -87.0966 68° East 471 542 37,000  Level FlightAware ADS-B
Sun 09:13:40 AM 36.0330 -87.0060 68° East 469 540 37,000  Level FlightAware ADS-B
Sun 09:13:48 AM 36.0401 -86.9848 67° East 470 541 37,000  Level FlightAware ADS-B
Sun 09:14:20 AM 36.0660 -86.9049 68° East 469 540 37,000  Level FlightAware ADS-B
Sun 09:14:51 AM 36.0909 -86.8278 68° East 469 540 37,000  Level FlightAware ADS-B
Sun 09:15:23 AM 36.1159 -86.7502 68° East 468 539 37,000  Level FlightAware ADS-B
Sun 09:15:44 AM 36.1324 -86.6931 70° East 470 541 37,000  Level FlightAware ADS-B
Sun 09:16:11 AM 36.1464 -86.6264 75° East 474 545 37,000  Level FlightAware ADS-B
Sun 09:16:44 AM 36.1600 -86.5382 79° East 474 545 37,000  Level FlightAware ADS-B
Sun 09:17:17 AM 36.1738 -86.4504 79° East 474 545 37,000  Level FlightAware ADS-B
Sun 09:17:47 AM 36.1860 -86.3721 79° East 474 545 37,000  Level FlightAware ADS-B
Sun 09:18:18 AM 36.1989 -86.2897 79° East 472 543 37,000  Level FlightAware ADS-B
Sun 09:18:51 AM 36.2127 -86.2000 79° East 471 542 37,000  Level FlightAware ADS-B
Sun 09:19:32 AM 36.2292 -86.0926 79° East 471 542 37,000  Level FlightAware ADS-B
Sun 09:20:03 AM 36.2417 -86.0111 79° East 467 537 37,000  Level FlightAware ADS-B
Sun 09:20:35 AM 36.2541 -85.9292 79° East 466 536 37,000  Level FlightAware ADS-B
Sun 09:21:05 AM 36.2660 -85.8504 79° East 465 535 37,000  Level FlightAware ADS-B
Sun 09:21:37 AM 36.2790 -85.7642 79° East 464 534 37,000  Level FlightAware ADS-B
Sun 09:22:08 AM 36.2908 -85.6853 79° East 462 532 37,000  Level FlightAware ADS-B
Sun 09:22:39 AM 36.3027 -85.6059 79° East 461 531 37,000  Level FlightAware ADS-B
Sun 09:23:17 AM 36.3175 -85.5065 80° East 461 531 37,000  Level FlightAware ADS-B
Sun 09:23:47 AM 36.3286 -85.4307 80° East 460 529 37,000  Level FlightAware ADS-B
Sun 09:24:18 AM 36.3405 -85.3497 80° East 461 531 37,000  Level FlightAware ADS-B
Sun 09:24:26 AM 36.3445 -85.3263 78° East 459 528 37,000  Level FlightAware ADS-B
Sun 09:24:32 AM 36.3484 -85.3107 73° East 456 525 37,000  Level FlightAware ADS-B
Sun 09:24:40 AM 36.3540 -85.2938 68° East 453 521 37,000  Level FlightAware ADS-B
Sun 09:25:13 AM 36.3958 -85.2270 52° Northeast 440 506 37,000 65 Level FlightAware ADS-B
Sun 09:26:13 AM 36.4500 -85.1870 31° Northeast 425 489 37,100  Climbing FlightAware ADS-B
Sun 09:26:45 AM 36.5565 -85.1238 25° Northeast 421 484 37,000 -79 Descending FlightAware ADS-B
Sun 09:27:29 AM 36.6319 -85.0778 26° Northeast 419 482 37,000  Level FlightAware ADS-B
Sun 09:28:06 AM 36.6978 -85.0372 26° Northeast 417 480 37,000  Level FlightAware ADS-B
Sun 09:28:38 AM 36.7518 -85.0040 26° Northeast 414 476 37,000  Level FlightAware ADS-B
Sun 09:29:12 AM 36.8096 -84.9683 26° Northeast 411 473 37,000  Level FlightAware ADS-B
Sun 09:29:45 AM 36.8668 -84.9332 26° Northeast 411 473 37,000  Level FlightAware ADS-B
Sun 09:30:16 AM 36.9176 -84.9017 26° Northeast 408 470 37,000  Level FlightAware ADS-B
Sun 09:30:56 AM 36.9860 -84.8594 26° Northeast 407 468 37,000  Level FlightAware ADS-B
Sun 09:31:29 AM 37.0413 -84.8253 26° Northeast 407 468 37,000  Level FlightAware ADS-B
Sun 09:32:19 AM 37.1240 -84.7740 26° Northeast 405 466 37,000  Level FlightAware ADS-B
Sun 09:32:49 AM 37.1765 -84.7413 26° Northeast 406 467 37,000  Level FlightAware ADS-B
Sun 09:33:24 AM 37.2323 -84.7066 26° Northeast 403 464 37,000  Level FlightAware ADS-B
Sun 09:33:55 AM 37.2866 -84.6727 26° Northeast 402 463 37,000  Level FlightAware ADS-B
Sun 09:34:26 AM 37.3370 -84.6410 27° Northeast 401 461 37,000  Level FlightAware ADS-B
Sun 09:34:33 AM 37.3498 -84.6332 26° Northeast 402 463 37,000  Level FlightAware ADS-B
Sun 09:35:48 AM 37.4640 -84.5620 26° Northeast 401 461 37,000  Level FlightAware ADS-B
Sun 09:36:29 AM 37.5400 -84.5140 27° Northeast 402 463 37,000  Level FlightAware ADS-B
Sun 09:37:10 AM 37.6130 -84.4827 19° North 391 450 37,000  Level FlightAware ADS-B
Sun 09:37:26 AM 37.6400 -84.4846 357° North 386 444 37,000  Level FlightAware ADS-B
Sun 09:37:33 AM 37.6536 -84.4884 348° North 383 441 37,000 545 Level FlightAware ADS-B
Sun 09:37:37 AM 37.6607 -84.4911 343° North 383 441 37,100  Climbing FlightAware ADS-B
Sun 09:38:07 AM 37.7112 -84.5129 341° North 379 436 37,000 -82 Descending FlightAware ADS-B
Sun 09:38:50 AM 37.7810 -84.5410 342° North 377 434 37,000  Level FlightAware ADS-B
Sun 09:39:34 AM 37.8540 -84.5700 343° North 374 430 37,000  Level FlightAware ADS-B
Sun 09:40:10 AM 37.9140 -84.5950 342° North 369 425 37,000  Level FlightAware ADS-B
Sun 09:40:30 AM 37.9467 -84.6079 343° North 368 423 37,000  Level FlightAware ADS-B
Sun 09:41:01 AM 37.9945 -84.6273 342° North 367 422 37,000  Level FlightAware ADS-B
Sun 09:41:31 AM 38.0444 -84.6474 342° North 366 421 37,000 -100 Level FlightAware ADS-B
Sun 09:42:01 AM 38.0937 -84.6675 342° North 367 422 36,900  Descending FlightAware ADS-B
Sun 09:42:32 AM 38.1438 -84.6879 342° North 369 425 37,000 -295 Climbing FlightAware ADS-B
Sun 09:43:02 AM 38.1890 -84.7060 343° North 371 427 36,600 -811 Descending FlightAware ADS-B
Sun 09:43:46 AM 38.2650 -84.7370 342° North 373 429 36,000 -419 Descending FlightAware ADS-B
Sun 09:44:28 AM 38.3350 -84.7660 342° North 380 437 36,000  Level FlightAware ADS-B
Sun 09:45:02 AM 38.3900 -84.7890 342° North 376 433 36,000  Level FlightAware ADS-B
Sun 09:45:48 AM 38.4660 -84.8200 342° North 374 430 36,000  Level FlightAware ADS-B
Sun 09:46:28 AM 38.5300 -84.8460 342° North 372 428 36,000  Level FlightAware ADS-B
Sun 09:47:12 AM 38.6030 -84.8760 342° North 372 428 36,000  Level FlightAware ADS-B
Sun 09:47:52 AM 38.6690 -84.9030 342° North 373 429 36,000  Level FlightAware ADS-B
Sun 09:48:36 AM 38.7410 -84.9330 342° North 373 429 36,000  Level FlightAware ADS-B
Sun 09:49:10 AM 38.7970 -84.9560 342° North 372 428 36,000 -366 Level FlightAware ADS-B
Sun 09:49:58 AM 38.8770 -84.9900 342° North 373 429 35,500 -783 Descending FlightAware ADS-B
Sun 09:50:42 AM 38.9500 -85.0200 342° North 380 437 34,800 -960 Descending FlightAware ADS-B
Sun 09:51:38 AM 39.0450 -85.0600 342° North 396 456 33,900 -1,000 Descending FlightAware ADS-B
Sun 09:52:18 AM 39.1150 -85.0890 342° North 403 464 33,200 -1,024 Descending FlightAware ADS-B
Sun 09:53:00 AM 39.1900 -85.1210 342° North 407 468 32,500 -987 Descending FlightAware ADS-B
Sun 09:53:37 AM 39.2560 -85.1480 342° North 411 473 31,900 -1,000 Descending FlightAware ADS-B
Sun 09:54:24 AM 39.3440 -85.1850 342° North 413 475 31,100 -989 Descending FlightAware ADS-B
Sun 09:55:08 AM 39.4230 -85.2190 342° North 415 478 30,400 -1,131 Descending FlightAware ADS-B
Sun 09:56:26 AM 39.4990 -85.2510 342° North 400 460 28,800 -1,220 Descending FlightAware ADS-B
Sun 09:57:06 AM 39.6300 -85.3070 342° North 413 475 28,000 -571 Descending FlightAware ADS-B
Sun 09:57:50 AM 39.7120 -85.3420 342° North 413 475 28,000  Level FlightAware ADS-B
Sun 09:58:30 AM 39.7870 -85.3740 342° North 413 475 28,000 -286 Level FlightAware ADS-B
Sun 09:59:14 AM 39.8640 -85.4070 342° North 396 456 27,600 -667 Descending FlightAware ADS-B
Sun 09:59:42 AM 39.9120 -85.4270 342° North 387 445 27,200 -800 Descending FlightAware ADS-B
Sun 10:00:44 AM 39.9930 -85.4620 342° North 386 444 26,400 -706 Descending FlightAware ADS-B
Sun 10:01:24 AM 40.0890 -85.5030 342° North 415 478 26,000 -286 Descending FlightAware ADS-B
Sun 10:02:08 AM 40.1700 -85.5380 342° North 412 474 26,000  Level FlightAware ADS-B
Sun 10:02:52 AM 40.2460 -85.5810 337° Northwest 410 472 26,000  Level FlightAware ADS-B
Sun 10:03:32 AM 40.2990 -85.6520 314° West 409 471 26,000  Level FlightAware ADS-B
Sun 10:04:16 AM 40.3550 -85.7310 313° West 409 471 26,000 -71 Level FlightAware ADS-B
Sun 10:04:56 AM 40.4080 -85.8050 313° West 410 472 25,900 -612 Descending FlightAware ADS-B
Sun 10:05:54 AM 40.4820 -85.9100 313° West 406 467 25,000 -928 Descending FlightAware ADS-B
Sun 10:06:33 AM 40.5310 -85.9800 313° West 404 465 24,400 -940 Descending FlightAware ADS-B
Sun 10:07:17 AM 40.5870 -86.0600 313° West 404 465 23,700 -940 Descending FlightAware ADS-B
Sun 10:07:56 AM 40.6350 -86.1290 313° West 399 459 23,100 -424 Descending FlightAware ADS-B
Sun 10:08:56 AM 40.7110 -86.2380 313° West 399 459 23,000 -59 Descending FlightAware ADS-B
Sun 10:09:37 AM 40.7620 -86.3120 312° West 400 460 23,000  Level FlightAware ADS-B
Sun 10:10:17 AM 40.8110 -86.3820 313° West 401 461 23,000  Level FlightAware ADS-B
Sun 10:11:42 AM 40.9180 -86.5380 312° West 402 463 23,000  Level FlightAware ADS-B
Sun 10:12:19 AM 40.9630 -86.6020 313° West 404 465 23,000 -367 Level FlightAware ADS-B
Sun 10:13:20 AM 41.0410 -86.7160 312° West 405 466 22,400 -1,415 Descending FlightAware ADS-B
Sun 10:14:05 AM 41.0960 -86.7960 312° West 395 455 20,500 -2,552 Descending FlightAware ADS-B
Sun 10:15:34 AM 41.1980 -86.9460 312° West 380 437 16,700 -2,153 Descending FlightAware ADS-B
Sun 10:16:16 AM 41.2280 -86.9910 312° West 367 422 15,800 -2,700 Descending FlightAware ADS-B
Sun 10:16:54 AM 41.2930 -87.0880 312° West 360 414 13,100 -3,353 Descending FlightAware ADS-B
Sun 10:17:24 AM 41.3260 -87.1360 312° West 353 406 12,000 -2,057 Descending FlightAware ADS-B
Sun 10:18:04 AM 41.3700 -87.2000 313° West 352 405 10,700 -1,024 Descending FlightAware ADS-B
Sun 10:18:46 AM 41.4220 -87.2610 319° Northwest 353 406 10,600  Descending FlightAware ADS-B
Sun 10:19:30 AM 41.4730 -87.3220 318° Northwest 351 404 10,700 82 Climbing FlightAware ADS-B
Sun 10:19:59 AM 41.5100 -87.3670 318° Northwest 351 404 10,700  Level FlightAware ADS-B
Sun 10:20:35 AM 41.5550 -87.4180 320° Northwest 352 405 10,700 -72 Level FlightAware ADS-B
Sun 10:21:22 AM 41.6140 -87.4800 322° Northwest 352 405 10,600 -467 Descending FlightAware ADS-B
Sun 10:22:05 AM 41.6640 -87.5360 320° Northwest 322 371 10,000 -761 Descending FlightAware ADS-B
Sun 10:22:33 AM 41.6950 -87.5710 320° Northwest 301 346 9,700 -750 Descending FlightAware ADS-B
Sun 10:23:01 AM 41.7230 -87.6030 320° Northwest 281 323 9,300 -1,279 Descending FlightAware ADS-B
Sun 10:23:34 AM 41.7560 -87.6410 319° Northwest 276 318 8,400 -1,579 Descending FlightAware ADS-B
Sun 10:23:58 AM 41.7800 -87.6660 322° Northwest 275 316 7,800 -1,543 Descending FlightAware ADS-B
Sun 10:24:09 AM 41.7920 -87.6740 334° Northwest 277 319 7,500 -1,778 Descending FlightAware ADS-B
Sun 10:24:25 AM 41.8120 -87.6780 352° North 278 320 7,000 -1,091 Descending FlightAware ADS-B
Sun 10:24:53 AM 41.8490 -87.6790 359° North 281 323 6,700 -305 Descending FlightAware ADS-B
Sun 10:25:24 AM 41.8910 -87.6820 357° North 284 327 6,700  Level FlightAware ADS-B
Sun 10:25:51 AM 41.9250 -87.6840 357° North 283 326 6,700 -113 Level FlightAware ADS-B
Sun 10:26:17 AM 41.9570 -87.6870 356° North 272 313 6,600 -214 Descending FlightAware ADS-B
Sun 10:26:47 AM 41.9930 -87.6900 356° North 234 269 6,500 -522 Descending FlightAware ADS-B
Sun 10:27:03 AM 42.0100 -87.6910 357° North 229 264 6,200 -1,227 Descending FlightAware ADS-B
Sun 10:27:31 AM 42.0390 -87.6940 356° North 222 255 5,600 -1,385 Descending FlightAware ADS-B
Sun 10:27:55 AM 42.0620 -87.6960 356° North 222 255 5,000 -1,765 Descending FlightAware ADS-B
Sun 10:28:22 AM 42.0900 -87.7080 342° North 231 266 4,100 -1,953 Descending FlightAware ADS-B
Sun 10:28:38 AM 42.1020 -87.7250 314° West 228 262 3,600 -1,556 Descending FlightAware ADS-B
Sun 10:28:49 AM 42.1070 -87.7380 297° West 225 259 3,400 -1,116 Descending FlightAware ADS-B
Sun 10:29:21 AM 42.0990 -87.7790 255° West 215 247 2,800 -1,091 Descending FlightAware ADS-B
Sun 10:29:33 AM 42.0910 -87.7900 226° Southwest 213 245 2,600 -938 Descending FlightAware ADS-B
Sun 10:29:53 AM 42.0770 -87.8070 222° Southwest 207 238 2,300 -938 Descending FlightAware ADS-B
Sun 10:30:05 AM 42.0670 -87.8180 219° Southwest 204 235 2,100 -1,050 Descending FlightAware ADS-B
Sun 10:30:33 AM 42.0470 -87.8410 221° Southwest 201 231 1,600 -964 Descending FlightAware ADS-B
Sun 10:31:01 AM 42.0290 -87.8610 220° Southwest 166 191 1,200 -960 Descending FlightAware ADS-B
Sun 10:31:23 AM 42.0170 -87.8750 221° Southwest 144 166 800 -906 Descending FlightAware ADS-B
Sun 10:31:54 AM 42.0020 -87.8910 218° Southwest 137 158 400 -774 Descending FlightAware ADS-B
Sun 10:32:22 AM 41.9880 -87.9070 220° Southwest 110 127 -857 Descending FlightAware ADS-B
Sun 10:32:35 AM 41.9850 -87.9110 225° Southwest 58 67  Level FlightAware ADS-B
Sun 10:33:27 AM 41.9810 -87.9120 191° South 34 39  Level FlightAware ADS-B
Sun 10:34:03 AM 41.9830 -87.9090 48° Northeast 21 24  Level FlightAware ADS-B
Sun 10:34:26 AM 41.9830 -87.9050 90° East 24 28  Level FlightAware ADS-B
Sun 10:34:51 AM 41.9830 -87.9020 90° East 28 32  Level FlightAware ADS-B
Sun 10:35:31 AM 41.9830 -87.8960 90° East 17 20  Level FlightAware ADS-B
Sun 10:35:41 AM 41.9820 -87.8950 143° Southeast 18 21  Level FlightAware ADS-B
Sun 10:35:57 AM 41.9810 -87.8940 143° Southeast 16 18  Level FlightAware ADS-B
Sun 10:36:30 AM 41.9800 -87.8950 217° Southwest 30 35  Level FlightAware ADS-B
Sun 10:36:42 AM 41.9790 -87.8950 180° South 32 37  Level FlightAware ADS-B
Sun 10:37:11 AM 41.9780 -87.8960 217° Southwest 27 31  Level FlightAware ADS-B
Sun 10:37:55 AM 41.9770 -87.8970 217° Southwest 11 13  Level FlightAware ADS-B

Login

Don't have an account? Register now (free) for customized features, flight alerts, and more!